Time;durP1;ratioP1;P1;durP2;ratioP2;P2;SDS_P1;SDS_P2;PMS_P1;PMS_P2;Temp;Humidity;BMP_temperature;BMP_pressure;BME280_temperature;BME280_humidity;BME280_pressure;Samples;Min_cycle;Max_cycle;Signal;HPM_P1;HPM_P2
2023/05/28 00:02:15;;;;;;;4.83;3.90;;;;;;;;;;5012086;28;20738;-85
2023/05/28 00:04:42;;;;;;;5.32;4.03;;;;;;;;;;5012011;28;20400;-85
2023/05/28 00:07:10;;;;;;;6.93;3.83;;;;;;;;;;5012090;28;20860;-85
2023/05/28 00:09:36;;;;;;;6.03;4.15;;;;;;;;;;5011868;28;20912;-85
2023/05/28 00:12:02;;;;;;;5.40;4.15;;;;;;;;;;5011473;28;20392;-85
2023/05/28 00:14:28;;;;;;;6.30;4.40;;;;;;;;;;5009995;28;20853;-86
2023/05/28 00:16:55;;;;;;;5.97;3.90;;;;;;;;;;5011782;28;20881;-85
2023/05/28 00:19:22;;;;;;;5.32;4.03;;;;;;;;;;5014287;28;20381;-85
2023/05/28 00:21:48;;;;;;;6.80;4.07;;;;;;;;;;5011725;28;20412;-85
2023/05/28 00:24:14;;;;;;;5.40;3.88;;;;;;;;;;5011479;28;20389;-85
2023/05/28 00:26:40;;;;;;;6.35;4.30;;;;;;;;;;5011440;28;20799;-85
2023/05/28 00:29:06;;;;;;;5.13;3.70;;;;;;;;;;5011610;28;20397;-85
2023/05/28 00:31:32;;;;;;;6.80;4.05;;;;;;;;;;5010731;28;20457;-85
2023/05/28 00:33:58;;;;;;;5.88;4.35;;;;;;;;;;5010229;28;20495;-85
2023/05/28 00:36:24;;;;;;;5.53;3.70;;;;;;;;;;5011452;28;20447;-85
2023/05/28 00:38:50;;;;;;;5.32;4.30;;;;;;;;;;5011593;28;20778;-85
2023/05/28 00:41:20;;;;;;;5.50;3.90;;;;;;;;;;5011506;28;20486;-85
2023/05/28 00:43:46;;;;;;;5.05;3.97;;;;;;;;;;5011532;28;20381;-85
2023/05/28 00:46:12;;;;;;;5.65;3.92;;;;;;;;;;5011394;28;20381;-84
2023/05/28 00:48:38;;;;;;;6.70;4.28;;;;;;;;;;5009091;28;20385;-85
2023/05/28 00:51:04;;;;;;;6.50;4.05;;;;;;;;;;5010596;28;20460;-85
2023/05/28 00:53:30;;;;;;;5.72;4.05;;;;;;;;;;5006916;28;20866;-85
2023/05/28 00:55:57;;;;;;;6.10;4.13;;;;;;;;;;5009582;28;20416;-85
2023/05/28 00:58:24;;;;;;;5.28;4.35;;;;;;;;;;5010987;28;20376;-85
2023/05/28 01:00:50;;;;;;;5.80;4.25;;;;;;;;;;5011314;28;20446;-85
2023/05/28 01:03:16;;;;;;;6.43;4.18;;;;;;;;;;5011096;28;20384;-85
2023/05/28 01:05:42;;;;;;;7.47;4.00;;;;;;;;;;5001708;28;20389;-85
2023/05/28 01:08:08;;;;;;;6.55;3.95;;;;;;;;;;5010831;28;20888;-86
2023/05/28 01:10:35;;;;;;;4.28;3.88;;;;;;;;;;5006918;28;20394;-86
2023/05/28 01:13:02;;;;;;;7.68;4.35;;;;;;;;;;5011210;28;20385;-85
2023/05/28 01:15:28;;;;;;;5.13;3.95;;;;;;;;;;5010372;28;20428;-85
2023/05/28 01:17:57;;;;;;;6.55;4.00;;;;;;;;;;5009378;28;20380;-85
2023/05/28 01:20:23;;;;;;;6.78;3.95;;;;;;;;;;5011672;28;20408;-85
2023/05/28 01:22:55;;;;;;;5.00;4.00;;;;;;;;;;5009122;28;20381;-85
2023/05/28 01:25:21;;;;;;;5.07;3.80;;;;;;;;;;5007848;28;20392;-85
2023/05/28 01:27:47;;;;;;;5.03;4.13;;;;;;;;;;5011303;28;20471;-85
2023/05/28 01:30:13;;;;;;;6.00;3.80;;;;;;;;;;5012765;28;20905;-85
2023/05/28 01:32:39;;;;;;;5.57;4.22;;;;;;;;;;5013657;28;20388;-85
2023/05/28 01:35:06;;;;;;;5.68;4.20;;;;;;;;;;5014743;28;20409;-85
2023/05/28 01:37:33;;;;;;;6.13;4.13;;;;;;;;;;5014655;28;20424;-85
2023/05/28 01:40:02;;;;;;;5.50;3.97;;;;;;;;;;5013704;28;20392;-85
2023/05/28 01:42:29;;;;;;;6.43;4.25;;;;;;;;;;5000640;28;20390;-86
2023/05/28 01:44:55;;;;;;;5.50;4.18;;;;;;;;;;5012633;28;20881;-85
2023/05/28 01:47:21;;;;;;;6.03;4.07;;;;;;;;;;5014634;28;20458;-85
2023/05/28 01:49:48;;;;;;;6.10;4.07;;;;;;;;;;5014169;28;20395;-85
2023/05/28 01:52:14;;;;;;;6.07;3.95;;;;;;;;;;5013626;28;20412;-85
2023/05/28 01:54:40;;;;;;;5.18;4.03;;;;;;;;;;5013855;28;20769;-85
2023/05/28 01:57:06;;;;;;;6.78;4.15;;;;;;;;;;5014119;28;20467;-85
2023/05/28 01:59:32;;;;;;;6.27;4.10;;;;;;;;;;5012531;28;20831;-85
2023/05/28 02:01:59;;;;;;;5.63;4.20;;;;;;;;;;5013718;28;20454;-84
2023/05/28 02:04:25;;;;;;;5.33;3.97;;;;;;;;;;5010449;28;20396;-85
2023/05/28 02:06:51;;;;;;;5.07;3.70;;;;;;;;;;5000804;28;21024;-85
2023/05/28 02:09:18;;;;;;;6.70;4.05;;;;;;;;;;5012439;28;20381;-86
2023/05/28 02:11:43;;;;;;;5.97;4.18;;;;;;;;;;5011845;28;20816;-86
2023/05/28 02:14:14;;;;;;;6.18;3.92;;;;;;;;;;5013660;28;20491;-85
2023/05/28 02:16:40;;;;;;;6.20;4.00;;;;;;;;;;5011614;28;20755;-85
2023/05/28 02:19:07;;;;;;;4.93;3.80;;;;;;;;;;5012786;28;20423;-85
2023/05/28 02:21:34;;;;;;;5.75;3.80;;;;;;;;;;5013920;28;20423;-85
2023/05/28 02:24:00;;;;;;;5.40;4.03;;;;;;;;;;5016178;28;20388;-85
2023/05/28 02:26:26;;;;;;;5.53;3.90;;;;;;;;;;5012582;28;20399;-85
2023/05/28 02:28:52;;;;;;;5.70;3.80;;;;;;;;;;5013930;28;20932;-85
2023/05/28 02:31:19;;;;;;;5.17;3.67;;;;;;;;;;5013343;28;20388;-85
2023/05/28 02:33:45;;;;;;;4.95;3.80;;;;;;;;;;5013355;28;20397;-85
2023/05/28 02:36:14;;;;;;;6.18;3.88;;;;;;;;;;5013606;28;20393;-85
2023/05/28 02:38:40;;;;;;;6.18;3.80;;;;;;;;;;5013490;28;20388;-85
2023/05/28 02:41:06;;;;;;;6.00;3.60;;;;;;;;;;5013528;28;20392;-85
2023/05/28 02:43:33;;;;;;;5.50;3.67;;;;;;;;;;5013546;28;20746;-85
2023/05/28 02:45:59;;;;;;;4.60;3.45;;;;;;;;;;5013413;28;20442;-85
2023/05/28 02:48:25;;;;;;;5.75;3.90;;;;;;;;;;5013487;28;20435;-85
2023/05/28 02:50:51;;;;;;;5.13;3.65;;;;;;;;;;5013467;28;20869;-85
2023/05/28 02:53:21;;;;;;;5.03;3.65;;;;;;;;;;5013297;28;20395;-85
2023/05/28 02:55:47;;;;;;;6.25;3.60;;;;;;;;;;5013210;28;20424;-85
2023/05/28 02:58:13;;;;;;;5.38;3.97;;;;;;;;;;5013180;28;20854;-85
2023/05/28 03:00:39;;;;;;;5.95;3.92;;;;;;;;;;5013247;28;20849;-85
2023/05/28 03:03:06;;;;;;;5.22;3.70;;;;;;;;;;5068298;23;20489;-89
2023/05/28 03:05:32;;;;;;;6.22;4.15;;;;;;;;;;5054723;28;20719;-93
2023/05/28 03:07:58;;;;;;;5.70;3.85;;;;;;;;;;5054059;28;20382;-93
2023/05/28 03:10:27;;;;;;;4.90;3.53;;;;;;;;;;5046339;28;20377;-90
2023/05/28 03:12:56;;;;;;;6.90;3.88;;;;;;;;;;5052631;28;20397;-93
2023/05/28 03:15:27;;;;;;;4.63;3.75;;;;;;;;;;5053875;28;20482;-93
2023/05/28 03:17:53;;;;;;;5.25;4.00;;;;;;;;;;5054755;28;20458;-91
2023/05/28 03:20:20;;;;;;;4.75;3.85;;;;;;;;;;5054450;28;20397;-95
2023/05/28 03:22:47;;;;;;;4.95;3.92;;;;;;;;;;5054528;28;20727;-93
2023/05/28 03:25:13;;;;;;;5.13;3.90;;;;;;;;;;5054491;28;20377;-93
2023/05/28 03:27:41;;;;;;;5.57;4.22;;;;;;;;;;5053590;28;20743;-93
2023/05/28 03:30:11;;;;;;;4.57;3.80;;;;;;;;;;5056231;28;20389;-94
2023/05/28 03:32:37;;;;;;;4.45;3.90;;;;;;;;;;5053479;28;20775;-90
2023/05/28 03:35:03;;;;;;;5.30;3.90;;;;;;;;;;5052636;28;21132;-90
2023/05/28 03:37:29;;;;;;;4.93;3.80;;;;;;;;;;5046731;28;20437;-91
2023/05/28 03:39:55;;;;;;;6.28;3.83;;;;;;;;;;5038885;28;20373;-91
2023/05/28 03:42:21;;;;;;;4.60;3.65;;;;;;;;;;5052695;28;20385;-92
2023/05/28 03:44:47;;;;;;;4.45;3.53;;;;;;;;;;5052670;28;20888;-90
2023/05/28 03:47:16;;;;;;;5.45;3.95;;;;;;;;;;5051210;28;20386;-91
2023/05/28 03:49:42;;;;;;;5.72;3.78;;;;;;;;;;5048382;28;20897;-91
2023/05/28 03:52:10;;;;;;;4.80;3.80;;;;;;;;;;5044845;28;20500;-91
2023/05/28 03:54:36;;;;;;;4.30;3.90;;;;;;;;;;5048447;28;20503;-90
2023/05/28 03:57:05;;;;;;;4.07;3.57;;;;;;;;;;5044134;28;20441;-92
2023/05/28 03:59:31;;;;;;;5.07;3.97;;;;;;;;;;5039668;28;20433;-92
2023/05/28 04:01:57;;;;;;;5.68;4.10;;;;;;;;;;5040355;28;20399;-92
2023/05/28 04:04:23;;;;;;;4.80;4.20;;;;;;;;;;5044105;28;20501;-93
2023/05/28 04:06:49;;;;;;;5.55;4.00;;;;;;;;;;5035592;28;20470;-93
2023/05/28 04:09:16;;;;;;;6.35;3.70;;;;;;;;;;5048982;28;20951;-92
2023/05/28 04:11:42;;;;;;;6.38;4.20;;;;;;;;;;5045660;28;20476;-92
2023/05/28 04:14:09;;;;;;;6.88;4.25;;;;;;;;;;5053614;28;20414;-93
2023/05/28 04:16:35;;;;;;;5.82;3.83;;;;;;;;;;5059836;28;20378;-92
2023/05/28 04:19:01;;;;;;;5.00;3.70;;;;;;;;;;5052486;28;20416;-92
2023/05/28 04:21:28;;;;;;;4.80;4.00;;;;;;;;;;5052604;28;20405;-93
2023/05/28 04:23:55;;;;;;;5.53;3.78;;;;;;;;;;5052470;28;20431;-93
2023/05/28 04:26:22;;;;;;;4.68;3.90;;;;;;;;;;5045827;28;20863;-93
2023/05/28 04:28:48;;;;;;;5.90;4.20;;;;;;;;;;5038423;28;20444;-92
2023/05/28 04:31:14;;;;;;;5.50;4.40;;;;;;;;;;5042110;28;20867;-93
2023/05/28 04:33:46;;;;;;;6.13;4.18;;;;;;;;;;5043113;28;20381;-95
2023/05/28 04:36:15;;;;;;;6.10;4.18;;;;;;;;;;5039694;28;20449;-94
2023/05/28 04:38:43;;;;;;;6.07;4.13;;;;;;;;;;5033231;28;21170;-92
2023/05/28 04:41:18;;;;;;;4.70;3.88;;;;;;;;;;5035291;28;20379;-91
2023/05/28 04:43:47;;;;;;;6.82;3.83;;;;;;;;;;5052021;28;20404;-92
2023/05/28 04:46:13;;;;;;;6.18;3.90;;;;;;;;;;5048003;28;20432;-92
2023/05/28 04:48:57;;;;;;;5.03;3.72;;;;;;;;;;5049294;28;20390;-92
2023/05/28 04:51:23;;;;;;;5.07;3.78;;;;;;;;;;5043855;28;20387;-92
2023/05/28 04:53:53;;;;;;;6.82;4.28;;;;;;;;;;5044982;28;20381;-92
2023/05/28 04:56:19;;;;;;;7.20;4.30;;;;;;;;;;5040089;28;20403;-92
2023/05/28 04:58:46;;;;;;;6.03;4.10;;;;;;;;;;5041211;28;20914;-92
2023/05/28 05:01:14;;;;;;;5.63;4.00;;;;;;;;;;5036223;28;20395;-91
2023/05/28 05:03:41;;;;;;;6.22;4.00;;;;;;;;;;5041118;28;20423;-93
2023/05/28 05:06:07;;;;;;;4.90;3.45;;;;;;;;;;5044477;28;20926;-93
2023/05/28 05:08:33;;;;;;;5.35;3.65;;;;;;;;;;5038892;28;20852;-93
2023/05/28 05:11:01;;;;;;;6.18;4.10;;;;;;;;;;5044202;28;20381;-91
2023/05/28 05:13:27;;;;;;;6.20;4.22;;;;;;;;;;5051491;28;20409;-91
2023/05/28 05:15:53;;;;;;;5.60;4.35;;;;;;;;;;5054693;28;20440;-91
2023/05/28 05:18:19;;;;;;;6.47;4.13;;;;;;;;;;5049089;28;20378;-91
2023/05/28 05:20:45;;;;;;;6.65;4.20;;;;;;;;;;5054784;28;20718;-89
2023/05/28 05:23:11;;;;;;;6.60;4.10;;;;;;;;;;5056167;28;20376;-89
2023/05/28 05:25:37;;;;;;;6.05;4.07;;;;;;;;;;5049379;28;20382;-89
2023/05/28 05:28:03;;;;;;;6.00;4.47;;;;;;;;;;5051261;28;20385;-89
2023/05/28 05:30:29;;;;;;;6.68;4.32;;;;;;;;;;5051737;28;20404;-88
2023/05/28 05:32:55;;;;;;;7.43;4.50;;;;;;;;;;5050026;28;20408;-89
2023/05/28 05:35:21;;;;;;;5.82;4.03;;;;;;;;;;5048854;28;20405;-88
2023/05/28 05:37:47;;;;;;;6.57;4.03;;;;;;;;;;5045475;28;20377;-90
2023/05/28 05:40:13;;;;;;;8.95;4.38;;;;;;;;;;5045771;28;20389;-89
2023/05/28 05:42:39;;;;;;;5.73;4.13;;;;;;;;;;5040950;28;20375;-89
2023/05/28 05:45:06;;;;;;;6.18;3.95;;;;;;;;;;5050543;28;20406;-90
2023/05/28 05:47:32;;;;;;;5.47;3.85;;;;;;;;;;5038124;28;20889;-88
2023/05/28 05:49:58;;;;;;;7.00;3.93;;;;;;;;;;5038186;28;20387;-89
2023/05/28 05:52:24;;;;;;;5.45;4.43;;;;;;;;;;5035110;28;20410;-89
2023/05/28 05:54:50;;;;;;;7.55;4.32;;;;;;;;;;5050636;28;20894;-87
2023/05/28 05:57:17;;;;;;;5.07;3.63;;;;;;;;;;5053516;28;20536;-90
2023/05/28 05:59:43;;;;;;;7.22;3.83;;;;;;;;;;5048512;28;20389;-90
2023/05/28 06:02:09;;;;;;;5.95;3.88;;;;;;;;;;5038495;28;20395;-89
2023/05/28 06:04:35;;;;;;;7.57;4.47;;;;;;;;;;5039238;28;20422;-89
2023/05/28 06:07:06;;;;;;;6.57;4.60;;;;;;;;;;5050022;28;20456;-89
2023/05/28 06:09:32;;;;;;;6.18;4.15;;;;;;;;;;5053297;28;20393;-88
2023/05/28 06:11:59;;;;;;;5.13;3.60;;;;;;;;;;5051296;28;20394;-89
2023/05/28 06:14:27;;;;;;;5.95;3.80;;;;;;;;;;5062818;28;20449;-90
2023/05/28 06:16:53;;;;;;;6.10;4.25;;;;;;;;;;5044555;28;20789;-88
2023/05/28 06:19:19;;;;;;;4.85;3.60;;;;;;;;;;5050349;28;20469;-90
2023/05/28 06:21:45;;;;;;;5.65;3.90;;;;;;;;;;5050294;28;20465;-90
2023/05/28 06:24:11;;;;;;;5.68;3.97;;;;;;;;;;5052150;28;20382;-89
2023/05/28 06:26:37;;;;;;;5.38;4.05;;;;;;;;;;5051052;28;20374;-90
2023/05/28 06:29:05;;;;;;;5.57;4.03;;;;;;;;;;5046893;28;20445;-90
2023/05/28 06:31:31;;;;;;;7.97;4.38;;;;;;;;;;5052530;28;20397;-88
2023/05/28 06:33:57;;;;;;;7.20;4.90;;;;;;;;;;5047985;28;20465;-88
2023/05/28 06:36:23;;;;;;;6.10;3.90;;;;;;;;;;5054723;28;20382;-89
2023/05/28 06:38:49;;;;;;;7.00;4.30;;;;;;;;;;5054578;28;20440;-88
2023/05/28 06:41:15;;;;;;;6.50;4.20;;;;;;;;;;5054950;28;20381;-88
2023/05/28 06:43:41;;;;;;;6.78;4.32;;;;;;;;;;5054177;28;20385;-88
2023/05/28 06:46:08;;;;;;;6.32;4.30;;;;;;;;;;5053703;28;20854;-89
2023/05/28 06:48:34;;;;;;;6.50;4.18;;;;;;;;;;5053395;28;20382;-89
2023/05/28 06:51:00;;;;;;;5.57;4.07;;;;;;;;;;5053998;28;20450;-89
2023/05/28 06:53:26;;;;;;;6.80;4.32;;;;;;;;;;5053982;28;20378;-89
2023/05/28 06:55:52;;;;;;;6.03;4.20;;;;;;;;;;5054691;28;20412;-88
2023/05/28 06:58:18;;;;;;;7.32;4.82;;;;;;;;;;5051061;28;20409;-88
2023/05/28 07:00:44;;;;;;;5.82;4.15;;;;;;;;;;5042853;28;20422;-89
2023/05/28 07:03:10;;;;;;;7.15;4.53;;;;;;;;;;5047669;28;20409;-90
2023/05/28 07:05:36;;;;;;;7.78;4.40;;;;;;;;;;5047142;28;20398;-89
2023/05/28 07:08:03;;;;;;;6.70;4.47;;;;;;;;;;5051274;28;20447;-89
2023/05/28 07:10:28;;;;;;;8.52;4.53;;;;;;;;;;5045324;28;20472;-89
2023/05/28 07:12:55;;;;;;;6.75;4.50;;;;;;;;;;5045948;28;20789;-89
2023/05/28 07:15:21;;;;;;;7.72;5.15;;;;;;;;;;5043333;28;20770;-89
2023/05/28 07:17:47;;;;;;;7.95;4.70;;;;;;;;;;5047816;28;20374;-90
2023/05/28 07:20:14;;;;;;;5.70;4.10;;;;;;;;;;5043293;28;20383;-88
2023/05/28 07:22:40;;;;;;;7.72;4.70;;;;;;;;;;5049913;28;20413;-89
2023/05/28 07:25:07;;;;;;;6.25;4.53;;;;;;;;;;5049842;28;20430;-86
2023/05/28 07:27:33;;;;;;;7.47;4.82;;;;;;;;;;5049351;28;20412;-88
2023/05/28 07:29:59;;;;;;;7.07;4.13;;;;;;;;;;5048429;28;20738;-87
2023/05/28 07:32:25;;;;;;;7.53;4.33;;;;;;;;;;5051622;28;20393;-88
2023/05/28 07:34:51;;;;;;;6.57;4.35;;;;;;;;;;5052325;28;20406;-89
2023/05/28 07:37:17;;;;;;;6.68;4.45;;;;;;;;;;5051962;28;21027;-88
2023/05/28 07:39:43;;;;;;;8.50;4.53;;;;;;;;;;5044311;28;20490;-88
2023/05/28 07:42:10;;;;;;;8.23;4.35;;;;;;;;;;5048573;28;20829;-86
2023/05/28 07:44:36;;;;;;;6.97;4.40;;;;;;;;;;5052618;28;20377;-87
2023/05/28 07:47:02;;;;;;;5.80;3.88;;;;;;;;;;5052576;28;20388;-87
2023/05/28 07:49:28;;;;;;;8.65;4.13;;;;;;;;;;5051091;28;20476;-92
2023/05/28 07:51:54;;;;;;;7.32;4.40;;;;;;;;;;5076983;22;20385;31
2023/05/28 07:54:51;;;;;;;7.27;4.37;;;;;;;;;;5026250;28;20865;-93
2023/05/28 07:57:51;;;;;;;5.75;3.80;;;;;;;;;;5027983;28;20439;-94
2023/05/28 08:00:17;;;;;;;6.85;4.10;;;;;;;;;;5028705;28;20377;-92
2023/05/28 08:05:19;;;;;;;5.88;4.05;;;;;;;;;;5071739;22;20814;-89
2023/05/28 08:07:48;;;;;;;6.68;3.90;;;;;;;;;;5052395;28;20754;-89
2023/05/28 08:10:17;;;;;;;6.82;3.70;;;;;;;;;;5049328;28;20377;-88
2023/05/28 08:12:43;;;;;;;7.03;4.13;;;;;;;;;;5052131;28;20439;-92
2023/05/28 08:15:09;;;;;;;7.88;3.95;;;;;;;;;;5051999;28;20401;-91
2023/05/28 08:17:35;;;;;;;5.47;3.60;;;;;;;;;;5049380;28;20499;-88
2023/05/28 08:20:01;;;;;;;5.75;3.80;;;;;;;;;;5051528;28;20388;-88
2023/05/28 08:22:27;;;;;;;6.78;3.60;;;;;;;;;;5050940;28;20377;-87
2023/05/28 08:24:53;;;;;;;4.82;3.33;;;;;;;;;;5051235;28;20390;-89
2023/05/28 08:27:40;;;;;;;5.00;3.45;;;;;;;;;;5052224;28;20385;-91
2023/05/28 08:30:08;;;;;;;5.63;3.53;;;;;;;;;;5052562;28;20381;-86
2023/05/28 08:32:34;;;;;;;5.80;3.70;;;;;;;;;;5051051;28;20389;-88
2023/05/28 08:35:00;;;;;;;7.82;3.58;;;;;;;;;;5051425;28;20402;-89
2023/05/28 08:37:26;;;;;;;6.20;3.57;;;;;;;;;;5051370;28;20476;-86
2023/05/28 08:39:52;;;;;;;7.17;3.93;;;;;;;;;;5050476;28;20408;-86
2023/05/28 08:42:18;;;;;;;4.70;3.40;;;;;;;;;;5050335;28;20381;-86
2023/05/28 08:44:45;;;;;;;5.75;3.47;;;;;;;;;;5049815;28;20447;-87
2023/05/28 08:47:12;;;;;;;6.78;3.78;;;;;;;;;;5051400;28;20504;-86
2023/05/28 08:49:56;;;;;;;7.33;3.97;;;;;;;;;;5051424;28;20464;-86
2023/05/28 08:52:23;;;;;;;10.65;4.00;;;;;;;;;;5051477;28;20392;-87
2023/05/28 08:54:49;;;;;;;6.63;3.50;;;;;;;;;;5051240;28;20455;-87
2023/05/28 08:57:16;;;;;;;6.25;3.67;;;;;;;;;;5050823;28;20390;-83
2023/05/28 08:59:42;;;;;;;6.97;3.55;;;;;;;;;;5050891;28;20397;-82
2023/05/28 09:02:11;;;;;;;5.90;3.73;;;;;;;;;;5050952;28;20390;-86
2023/05/28 09:04:37;;;;;;;5.72;3.45;;;;;;;;;;5050353;28;20470;-85
2023/05/28 09:07:03;;;;;;;6.28;3.45;;;;;;;;;;5051489;28;20393;-85
2023/05/28 09:09:29;;;;;;;6.33;3.80;;;;;;;;;;5050825;28;20385;-86
2023/05/28 09:12:03;;;;;;;6.00;3.60;;;;;;;;;;5051104;28;20878;-86
2023/05/28 09:14:30;;;;;;;6.07;3.65;;;;;;;;;;5051200;28;20514;-87
2023/05/28 09:16:56;;;;;;;6.28;3.88;;;;;;;;;;5051172;28;20387;-86
2023/05/28 09:19:22;;;;;;;5.85;3.50;;;;;;;;;;5050961;28;20389;-86
2023/05/28 09:21:56;;;;;;;5.05;3.42;;;;;;;;;;5051129;28;20738;-86
2023/05/28 09:24:25;;;;;;;5.50;3.20;;;;;;;;;;5050641;28;20855;-85
2023/05/28 09:26:54;;;;;;;4.67;3.33;;;;;;;;;;5050207;28;20381;-84
2023/05/28 09:29:20;;;;;;;4.32;3.28;;;;;;;;;;5050767;28;20442;-84
2023/05/28 09:31:54;;;;;;;5.22;3.50;;;;;;;;;;5050780;28;20409;-83
2023/05/28 09:34:20;;;;;;;6.65;3.60;;;;;;;;;;5046987;28;20365;-84
2023/05/28 09:36:46;;;;;;;6.65;3.50;;;;;;;;;;5050343;28;21197;-84
2023/05/28 09:39:12;;;;;;;6.60;3.35;;;;;;;;;;5050752;28;20392;-85
2023/05/28 09:41:43;;;;;;;4.65;3.20;;;;;;;;;;5053422;28;20381;-85
2023/05/28 09:44:10;;;;;;;4.53;3.65;;;;;;;;;;5050668;28;20456;-87
2023/05/28 09:46:36;;;;;;;4.63;3.13;;;;;;;;;;5050510;28;20468;-83
2023/05/28 09:49:03;;;;;;;5.80;3.38;;;;;;;;;;5053296;28;20456;-85
2023/05/28 09:51:30;;;;;;;5.67;3.80;;;;;;;;;;5053996;28;20424;-84
2023/05/28 09:54:00;;;;;;;5.43;3.58;;;;;;;;;;5053609;28;20382;-86
2023/05/28 09:56:32;;;;;;;4.60;3.20;;;;;;;;;;5053307;28;20404;-83
2023/05/28 09:58:59;;;;;;;4.32;3.50;;;;;;;;;;5053894;28;20464;-84
2023/05/28 10:01:27;;;;;;;5.97;3.65;;;;;;;;;;5052557;28;20870;-87
2023/05/28 10:04:05;;;;;;;4.80;3.65;;;;;;;;;;5053304;28;20901;-87
2023/05/28 10:06:32;;;;;;;4.47;3.47;;;;;;;;;;5054103;28;20386;-86
2023/05/28 10:09:00;;;;;;;5.63;3.60;;;;;;;;;;5054936;28;20385;-89
2023/05/28 10:11:28;;;;;;;4.20;3.47;;;;;;;;;;5048221;28;20385;-91
2023/05/28 10:13:55;;;;;;;6.73;3.40;;;;;;;;;;5054179;28;20388;-90
2023/05/28 10:16:21;;;;;;;6.93;3.90;;;;;;;;;;5057084;28;20411;-87
2023/05/28 10:18:47;;;;;;;5.45;3.13;;;;;;;;;;5053886;28;20793;-88
2023/05/28 10:21:13;;;;;;;6.15;3.63;;;;;;;;;;5054245;28;20381;-88
2023/05/28 10:23:40;;;;;;;5.22;3.38;;;;;;;;;;5054483;28;20435;-90
2023/05/28 10:26:07;;;;;;;4.88;3.55;;;;;;;;;;5055808;28;20393;-90
2023/05/28 10:28:33;;;;;;;5.05;3.60;;;;;;;;;;5056485;28;20431;-88
2023/05/28 10:31:03;;;;;;;5.82;3.67;;;;;;;;;;5055667;28;20950;-90
2023/05/28 10:33:29;;;;;;;4.10;3.40;;;;;;;;;;5056780;28;20392;-92
2023/05/28 10:35:57;;;;;;;5.13;3.60;;;;;;;;;;5053920;28;20402;-92
2023/05/28 10:38:23;;;;;;;5.07;3.20;;;;;;;;;;5053604;28;20405;-88
2023/05/28 10:40:49;;;;;;;5.35;3.40;;;;;;;;;;5053791;28;20881;-90
2023/05/28 10:43:35;;;;;;;4.47;3.65;;;;;;;;;;5054034;28;20374;-89
2023/05/28 10:46:01;;;;;;;4.38;3.40;;;;;;;;;;5048330;28;20416;-92
2023/05/28 10:48:30;;;;;;;8.18;3.60;;;;;;;;;;5054665;28;20417;-89
2023/05/28 10:51:00;;;;;;;5.20;3.30;;;;;;;;;;5053474;28;20397;-86
2023/05/28 10:53:27;;;;;;;4.78;3.60;;;;;;;;;;5059249;22;20519;-89
2023/05/28 10:55:53;;;;;;;5.00;3.50;;;;;;;;;;5031620;28;20537;-90
2023/05/28 10:58:38;;;;;;;6.23;3.90;;;;;;;;;;5049664;28;20484;-90
2023/05/28 11:01:24;;;;;;;4.53;3.88;;;;;;;;;;5052608;28;20453;-92
2023/05/28 11:03:54;;;;;;;5.45;3.42;;;;;;;;;;5047761;28;20878;-90
2023/05/28 11:06:20;;;;;;;5.57;3.58;;;;;;;;;;5034356;28;20428;-88
2023/05/28 11:08:48;;;;;;;5.07;3.90;;;;;;;;;;5052104;28;20381;-89
2023/05/28 11:11:15;;;;;;;4.38;3.60;;;;;;;;;;5034800;28;20385;-89
2023/05/28 11:13:42;;;;;;;4.32;3.60;;;;;;;;;;5052742;28;20373;-88
2023/05/28 11:16:12;;;;;;;5.30;3.50;;;;;;;;;;5053508;28;20437;-91
2023/05/28 11:18:38;;;;;;;5.43;3.30;;;;;;;;;;5053277;28;20385;-89
2023/05/28 11:21:07;;;;;;;4.70;3.65;;;;;;;;;;5053414;28;20491;-90
2023/05/28 11:23:33;;;;;;;4.43;3.28;;;;;;;;;;5035575;28;20392;-91
2023/05/28 11:25:59;;;;;;;4.97;3.80;;;;;;;;;;5053093;28;20377;-89
2023/05/28 11:28:25;;;;;;;4.32;3.33;;;;;;;;;;5035215;28;20385;-89
2023/05/28 11:30:52;;;;;;;5.57;3.80;;;;;;;;;;5035531;28;20378;-92
2023/05/28 11:33:18;;;;;;;3.55;3.20;;;;;;;;;;5034822;28;20374;-92
2023/05/28 11:35:44;;;;;;;5.32;3.50;;;;;;;;;;5052559;28;20413;-87
2023/05/28 11:38:10;;;;;;;5.28;3.50;;;;;;;;;;5052330;28;20390;-87
2023/05/28 11:40:36;;;;;;;4.47;3.17;;;;;;;;;;5052446;28;20930;-88
2023/05/28 11:43:04;;;;;;;5.27;3.43;;;;;;;;;;5036950;28;20388;-86
2023/05/28 11:45:36;;;;;;;4.80;3.63;;;;;;;;;;5052284;28;20442;-87
2023/05/28 11:48:02;;;;;;;5.75;3.60;;;;;;;;;;5052121;28;20393;-85
2023/05/28 11:50:28;;;;;;;5.20;3.67;;;;;;;;;;5051954;28;20390;-87
2023/05/28 11:52:54;;;;;;;4.38;3.50;;;;;;;;;;5037046;28;20774;-88
2023/05/28 11:55:21;;;;;;;4.40;3.33;;;;;;;;;;5047279;28;20411;-86
2023/05/28 11:57:55;;;;;;;4.95;3.33;;;;;;;;;;5042819;28;20437;-85
2023/05/28 12:00:31;;;;;;;4.35;3.25;;;;;;;;;;5044168;28;20385;-85
2023/05/28 12:02:57;;;;;;;3.92;3.08;;;;;;;;;;5051449;28;20400;-86
2023/05/28 12:05:23;;;;;;;4.57;3.42;;;;;;;;;;5047134;28;20748;-86
2023/05/28 12:07:51;;;;;;;6.68;3.47;;;;;;;;;;5043401;28;20431;-87
2023/05/28 12:10:19;;;;;;;5.90;3.50;;;;;;;;;;5054125;28;20411;-86
2023/05/28 12:12:49;;;;;;;5.00;3.40;;;;;;;;;;5051331;28;20382;-85
2023/05/28 12:15:16;;;;;;;6.18;3.58;;;;;;;;;;5051678;28;20441;-87
2023/05/28 12:17:43;;;;;;;4.70;3.20;;;;;;;;;;5051973;28;20862;-87
2023/05/28 12:20:15;;;;;;;4.75;3.70;;;;;;;;;;5051735;28;20378;-86
2023/05/28 12:22:41;;;;;;;3.55;3.10;;;;;;;;;;5050842;28;20382;-87
2023/05/28 12:25:07;;;;;;;5.38;3.38;;;;;;;;;;5048097;28;20400;-88
2023/05/28 12:27:33;;;;;;;4.15;3.10;;;;;;;;;;5047716;28;20383;-88
2023/05/28 12:29:59;;;;;;;5.33;3.63;;;;;;;;;;5045158;28;20747;-88
2023/05/28 12:32:26;;;;;;;5.17;3.83;;;;;;;;;;5045709;28;20400;-87
2023/05/28 12:34:55;;;;;;;3.72;3.20;;;;;;;;;;5051282;28;20420;-87
2023/05/28 12:37:22;;;;;;;4.18;3.35;;;;;;;;;;5051337;28;20434;-88
2023/05/28 12:39:48;;;;;;;4.72;3.42;;;;;;;;;;5050971;28;20388;-86
2023/05/28 12:42:14;;;;;;;7.07;3.50;;;;;;;;;;5051736;28;20377;-89
2023/05/28 12:44:40;;;;;;;4.53;3.47;;;;;;;;;;5051571;28;20435;-88
2023/05/28 12:47:06;;;;;;;3.90;3.10;;;;;;;;;;5051257;28;20381;-87
2023/05/28 12:49:32;;;;;;;5.05;3.35;;;;;;;;;;5051191;28;20381;-87
2023/05/28 12:51:58;;;;;;;4.07;3.47;;;;;;;;;;5051123;28;20739;-87
2023/05/28 12:54:24;;;;;;;4.83;3.20;;;;;;;;;;5051373;28;20398;-89
2023/05/28 12:56:50;;;;;;;4.82;3.30;;;;;;;;;;5051096;28;20377;-88
2023/05/28 12:59:26;;;;;;;4.03;3.30;;;;;;;;;;5051393;28;20404;-87
2023/05/28 13:01:54;;;;;;;4.88;3.28;;;;;;;;;;5050229;28;20400;-89
2023/05/28 13:04:20;;;;;;;4.65;3.40;;;;;;;;;;5049418;28;20439;-88
2023/05/28 13:06:46;;;;;;;4.65;3.20;;;;;;;;;;5051955;28;20377;-89
2023/05/28 13:09:12;;;;;;;3.40;3.10;;;;;;;;;;5033195;28;20378;-91
2023/05/28 13:11:39;;;;;;;3.97;3.00;;;;;;;;;;5052411;28;20377;-89
2023/05/28 13:14:05;;;;;;;4.82;3.17;;;;;;;;;;5045189;28;20377;-90
2023/05/28 13:16:31;;;;;;;4.85;3.38;;;;;;;;;;5051426;28;20468;-88
2023/05/28 13:18:57;;;;;;;4.07;3.28;;;;;;;;;;5050014;28;20369;-90
2023/05/28 13:21:23;;;;;;;4.30;3.20;;;;;;;;;;5050811;28;20464;-88
2023/05/28 13:23:49;;;;;;;4.13;3.10;;;;;;;;;;5052812;28;20369;-88
2023/05/28 13:26:15;;;;;;;4.30;3.20;;;;;;;;;;5054356;28;20735;-89
2023/05/28 13:28:41;;;;;;;5.25;3.30;;;;;;;;;;5054725;28;20460;-88
2023/05/28 13:31:08;;;;;;;4.93;3.17;;;;;;;;;;5054749;28;20536;-87
2023/05/28 13:33:34;;;;;;;5.57;3.10;;;;;;;;;;5051621;28;20393;-89
2023/05/28 13:36:00;;;;;;;3.50;2.87;;;;;;;;;;5055456;28;20405;-89
2023/05/28 13:38:26;;;;;;;4.33;3.07;;;;;;;;;;5055513;28;20712;-88
2023/05/28 13:40:53;;;;;;;3.63;2.80;;;;;;;;;;5055341;28;20385;-89
2023/05/28 13:43:19;;;;;;;3.90;3.00;;;;;;;;;;5057263;28;20431;-91
2023/05/28 13:45:45;;;;;;;4.72;3.03;;;;;;;;;;5054741;28;20464;-89
2023/05/28 13:48:11;;;;;;;3.70;3.05;;;;;;;;;;5054764;28;20389;-87
2023/05/28 13:50:37;;;;;;;4.97;2.90;;;;;;;;;;5054840;28;20381;-87
2023/05/28 13:53:03;;;;;;;4.00;3.05;;;;;;;;;;5053994;28;20466;-88
2023/05/28 13:55:29;;;;;;;4.68;3.33;;;;;;;;;;5054449;28;20492;-90
2023/05/28 13:57:55;;;;;;;3.80;2.93;;;;;;;;;;5054353;28;20455;-90
2023/05/28 14:00:21;;;;;;;3.30;3.00;;;;;;;;;;5054767;28;20459;-88
2023/05/28 14:02:48;;;;;;;4.33;3.17;;;;;;;;;;5053791;28;20378;-90
2023/05/28 14:05:15;;;;;;;4.38;3.10;;;;;;;;;;5054197;28;20451;-89
2023/05/28 14:07:41;;;;;;;4.43;3.10;;;;;;;;;;5054509;28;20388;-86
2023/05/28 14:10:07;;;;;;;4.38;3.22;;;;;;;;;;5054476;28;20389;-90
2023/05/28 14:12:33;;;;;;;4.87;3.20;;;;;;;;;;5036391;28;20432;-89
2023/05/28 14:15:01;;;;;;;3.87;2.73;;;;;;;;;;5053368;28;20893;-88
2023/05/28 14:17:27;;;;;;;3.13;2.50;;;;;;;;;;5055834;28;20374;-87
2023/05/28 14:19:53;;;;;;;3.63;2.90;;;;;;;;;;5048713;28;20392;-86
2023/05/28 14:22:19;;;;;;;3.40;2.80;;;;;;;;;;5053795;28;20742;-89
2023/05/28 14:24:45;;;;;;;3.50;2.90;;;;;;;;;;5036591;28;20389;-91
2023/05/28 14:27:11;;;;;;;3.95;3.58;;;;;;;;;;5053847;28;20476;-88
2023/05/28 14:29:37;;;;;;;4.25;3.40;;;;;;;;;;5036200;28;20393;-89
2023/05/28 14:32:03;;;;;;;5.95;3.70;;;;;;;;;;5053686;28;20435;-86
2023/05/28 14:34:29;;;;;;;4.43;3.28;;;;;;;;;;5052208;28;20386;-87
2023/05/28 14:36:55;;;;;;;3.33;2.83;;;;;;;;;;5054059;28;20455;-90
2023/05/28 14:39:21;;;;;;;3.50;3.03;;;;;;;;;;5045099;28;20413;-94
2023/05/28 14:41:48;;;;;;;3.90;3.30;;;;;;;;;;5039026;28;20473;-94
2023/05/28 14:44:19;;;;;;;4.47;3.03;;;;;;;;;;5038921;28;20388;-94
2023/05/28 14:46:53;;;;;;;3.85;2.75;;;;;;;;;;5040012;28;20390;-94